createdAt,value
2022-08-14T00:00:30.585Z,7.30
2022-08-14T00:03:01.441Z,11.60
2022-08-14T00:05:31.588Z,12.50
2022-08-14T00:08:00.393Z,13.43
2022-08-14T00:10:52.178Z,8.60
2022-08-14T00:13:18.329Z,7.53
2022-08-14T00:15:49.659Z,8.20
2022-08-14T00:19:05.439Z,16.40
2022-08-14T00:21:11.780Z,7.43
2022-08-14T00:23:40.699Z,7.80
2022-08-14T00:26:21.760Z,10.73
2022-08-14T00:28:51.642Z,7.90
2022-08-14T00:31:35.166Z,9.70
2022-08-14T00:34:36.684Z,8.07
2022-08-14T00:37:00.409Z,7.50
2022-08-14T00:39:30.445Z,7.97
2022-08-14T00:41:59.427Z,8.13
2022-08-14T00:44:32.453Z,8.03
2022-08-14T00:47:02.531Z,8.90
2022-08-14T00:49:38.341Z,8.17
2022-08-14T00:52:14.103Z,29.80
2022-08-14T00:54:47.400Z,20.23
2022-08-14T00:57:15.709Z,19.10
2022-08-14T00:59:45.622Z,8.93
2022-08-14T01:02:17.930Z,11.90
2022-08-14T01:04:53.334Z,9.47
2022-08-14T01:07:27.335Z,10.40
2022-08-14T01:09:57.345Z,10.60
2022-08-14T01:12:30.464Z,10.33
2022-08-14T01:15:02.214Z,10.73
2022-08-14T01:17:49.574Z,9.93
2022-08-14T01:20:39.941Z,11.47
2022-08-14T01:23:16.601Z,10.90
2022-08-14T01:25:52.077Z,10.23
2022-08-14T01:28:47.232Z,11.17
2022-08-14T01:31:12.553Z,11.27
2022-08-14T01:35:15.854Z,10.47
2022-08-14T01:36:39.091Z,11.07
2022-08-14T01:39:12.839Z,11.27
2022-08-14T01:41:44.421Z,10.03
2022-08-14T01:44:33.210Z,11.30
2022-08-14T01:47:11.825Z,10.83
2022-08-14T01:49:46.290Z,10.67
2022-08-14T01:52:34.391Z,11.17
2022-08-14T01:55:19.057Z,10.87
2022-08-14T01:58:28.950Z,12.00
2022-08-14T02:00:59.214Z,12.17
2022-08-14T02:03:30.916Z,10.90
2022-08-14T02:06:03.978Z,10.10
2022-08-14T02:08:53.265Z,11.73
2022-08-14T02:11:26.384Z,10.77
2022-08-14T02:13:58.999Z,11.80
2022-08-14T02:16:30.769Z,13.80
2022-08-14T02:19:02.626Z,11.40
2022-08-14T02:21:43.673Z,11.07
2022-08-14T02:24:39.131Z,12.10
2022-08-14T02:28:22.351Z,14.87
2022-08-14T02:30:01.255Z,12.27
2022-08-14T02:32:37.310Z,11.83
2022-08-14T02:35:17.963Z,12.37
2022-08-14T02:37:49.130Z,11.90
2022-08-14T02:40:18.842Z,12.00
2022-08-14T02:42:55.316Z,12.17
2022-08-14T02:45:38.712Z,11.73
2022-08-14T02:49:02.561Z,11.27
2022-08-14T02:51:02.684Z,12.47
2022-08-14T02:53:31.604Z,11.77
2022-08-14T02:56:30.076Z,11.23
2022-08-14T02:58:55.757Z,11.20
2022-08-14T03:01:31.336Z,12.60
2022-08-14T03:04:12.708Z,12.20
2022-08-14T03:07:06.149Z,12.20
2022-08-14T03:09:41.674Z,12.87
2022-08-14T03:12:30.968Z,12.10
2022-08-14T03:15:16.075Z,11.37
2022-08-14T03:17:57.636Z,12.57
2022-08-14T03:20:29.365Z,11.57
2022-08-14T03:23:00.077Z,11.70
2022-08-14T03:25:34.077Z,12.13
2022-08-14T03:28:07.261Z,11.30
2022-08-14T03:30:39.323Z,13.03
2022-08-14T03:33:10.858Z,12.43
2022-08-14T03:35:59.946Z,12.27
2022-08-14T03:39:14.271Z,12.20
2022-08-14T03:41:23.306Z,11.63
2022-08-14T03:43:57.794Z,15.00
2022-08-14T03:46:51.938Z,12.73
2022-08-14T03:49:28.568Z,12.27
2022-08-14T03:52:00.688Z,12.63
2022-08-14T03:54:29.842Z,12.73
2022-08-14T03:57:02.806Z,13.00
2022-08-14T03:59:32.283Z,12.73
2022-08-14T04:02:04.620Z,12.73
2022-08-14T04:04:53.422Z,12.70
2022-08-14T04:07:22.561Z,14.73
2022-08-14T04:09:50.854Z,12.60
2022-08-14T04:12:26.629Z,13.40
2022-08-14T04:14:55.697Z,11.70
2022-08-14T04:17:26.248Z,12.43
2022-08-14T04:19:57.613Z,13.87
2022-08-14T04:22:25.713Z,13.03
2022-08-14T04:24:54.437Z,11.70
2022-08-14T04:27:23.347Z,12.10
2022-08-14T04:29:52.034Z,14.63
2022-08-14T04:33:00.929Z,13.03
2022-08-14T04:35:11.146Z,13.53
2022-08-14T04:37:57.094Z,13.37
2022-08-14T04:40:42.919Z,14.30
2022-08-14T04:43:38.789Z,13.57
2022-08-14T04:46:10.625Z,12.37
2022-08-14T04:48:59.850Z,12.43
2022-08-14T04:51:37.542Z,12.80
2022-08-14T04:54:18.386Z,13.33
2022-08-14T04:56:46.594Z,13.80
2022-08-14T04:59:15.202Z,12.70
2022-08-14T05:01:47.851Z,13.63
2022-08-14T05:04:20.298Z,13.67
2022-08-14T05:06:53.450Z,12.93
2022-08-14T05:09:23.588Z,14.83
2022-08-14T05:11:53.112Z,14.40
2022-08-14T05:14:43.428Z,13.97
2022-08-14T05:17:11.588Z,14.67
2022-08-14T05:19:44.397Z,13.07
2022-08-14T05:22:30.099Z,14.93
2022-08-14T05:24:59.537Z,18.43
2022-08-14T05:27:31.266Z,13.00
2022-08-14T05:30:01.188Z,14.40
2022-08-14T05:32:29.988Z,12.40
2022-08-14T05:34:59.440Z,14.33
2022-08-14T05:37:31.583Z,13.87
2022-08-14T05:40:02.782Z,14.20
2022-08-14T05:42:34.249Z,14.53
2022-08-14T05:45:04.001Z,13.33
2022-08-14T05:47:38.927Z,13.90
2022-08-14T05:50:17.225Z,15.27
2022-08-14T05:52:51.159Z,13.10
2022-08-14T05:55:22.008Z,13.63
2022-08-14T05:58:22.130Z,14.10
2022-08-14T06:01:02.312Z,13.60
2022-08-14T06:03:30.681Z,14.73
2022-08-14T06:05:59.017Z,14.03
2022-08-14T06:08:41.430Z,14.40
2022-08-14T06:11:20.090Z,15.30
2022-08-14T06:13:52.015Z,15.03
2022-08-14T06:16:20.248Z,14.10
2022-08-14T06:18:52.443Z,14.00
2022-08-14T06:21:22.594Z,15.00
2022-08-14T06:23:53.310Z,14.07
2022-08-14T06:26:22.580Z,14.63
2022-08-14T06:28:59.926Z,15.40
2022-08-14T06:31:28.637Z,14.60
2022-08-14T06:35:02.635Z,15.83
2022-08-14T06:36:45.682Z,15.30
2022-08-14T06:39:17.296Z,14.80
2022-08-14T06:41:58.411Z,15.33
2022-08-14T06:44:33.134Z,14.60
2022-08-14T06:47:01.972Z,14.77
2022-08-14T06:49:31.066Z,15.00
2022-08-14T06:52:15.377Z,15.53
2022-08-14T06:54:46.766Z,13.60
2022-08-14T07:01:11.936Z,14.80
2022-08-14T07:03:58.135Z,13.80
2022-08-14T07:06:46.344Z,15.03
2022-08-14T07:09:19.859Z,14.90
2022-08-14T07:11:53.713Z,13.83
2022-08-14T07:14:22.046Z,12.90
2022-08-14T07:16:50.829Z,16.10
2022-08-14T07:19:20.743Z,13.60
2022-08-14T07:21:50.286Z,13.77
2022-08-14T07:24:26.491Z,13.63
2022-08-14T07:27:00.940Z,14.20
2022-08-14T07:29:29.394Z,13.38
2022-08-14T07:31:58.485Z,13.02
2022-08-14T07:34:40.556Z,13.02
2022-08-14T07:37:10.001Z,13.40
2022-08-14T07:39:38.584Z,14.15
2022-08-14T07:42:09.635Z,13.30
2022-08-14T07:44:46.551Z,13.57
2022-08-14T07:47:18.913Z,12.48
2022-08-14T07:50:00.245Z,11.88
2022-08-14T07:52:31.941Z,12.43
2022-08-14T07:55:05.209Z,12.35
2022-08-14T08:00:29.987Z,13.50
2022-08-14T08:03:00.741Z,13.38
2022-08-14T08:05:29.112Z,12.02
2022-08-14T08:07:58.413Z,12.73
2022-08-14T08:11:01.274Z,11.88
2022-08-14T08:13:29.227Z,13.60
2022-08-14T08:15:59.142Z,12.63
2022-08-14T08:18:31.121Z,12.93
2022-08-14T08:21:00.242Z,12.60
2022-08-14T08:23:39.852Z,13.02
2022-08-14T08:26:12.213Z,11.55
2022-08-14T08:28:44.542Z,14.18
2022-08-14T08:31:13.932Z,11.90
2022-08-14T08:33:49.395Z,12.82
2022-08-14T08:36:18.650Z,12.50
2022-08-14T08:39:18.701Z,13.10
2022-08-14T08:41:49.383Z,13.18
2022-08-14T08:44:31.602Z,12.75
2022-08-14T08:47:06.174Z,12.85
2022-08-14T08:49:48.363Z,11.43
2022-08-14T08:52:24.684Z,11.98
2022-08-14T08:54:57.367Z,11.88
2022-08-14T08:58:24.918Z,11.00
2022-08-14T09:00:58.654Z,11.57
2022-08-14T09:03:29.340Z,11.43
2022-08-14T09:06:03.672Z,11.88
2022-08-14T09:08:34.201Z,11.77
2022-08-14T09:11:20.888Z,11.30
2022-08-14T09:13:51.700Z,11.23
2022-08-14T09:16:25.815Z,11.77
2022-08-14T09:18:55.948Z,10.95
2022-08-14T09:21:31.782Z,11.15
2022-08-14T09:24:29.600Z,10.75
2022-08-14T09:26:49.921Z,10.73
2022-08-14T09:29:23.214Z,9.13
2022-08-14T09:31:57.803Z,10.55
2022-08-14T09:34:50.902Z,9.80
2022-08-14T09:37:39.143Z,10.32
2022-08-14T09:40:20.823Z,10.23
2022-08-14T09:42:58.940Z,10.85
2022-08-14T09:45:40.194Z,10.45
2022-08-14T09:48:30.253Z,9.70
2022-08-14T09:54:18.290Z,8.60
2022-08-14T09:56:45.775Z,9.23
2022-08-14T09:59:16.659Z,9.15
2022-08-14T10:01:52.700Z,9.05
2022-08-14T10:04:34.711Z,8.30
2022-08-14T10:07:04.932Z,8.52
2022-08-14T10:09:35.140Z,8.57
2022-08-14T10:12:13.339Z,9.68
2022-08-14T10:14:55.348Z,9.20
2022-08-14T10:17:27.561Z,9.05
2022-08-14T10:20:02.862Z,8.48
2022-08-14T10:23:13.697Z,8.75
2022-08-14T10:25:22.614Z,9.57
2022-08-14T10:28:01.665Z,7.05
2022-08-14T10:30:37.848Z,8.35
2022-08-14T10:33:07.078Z,8.27
2022-08-14T10:35:48.130Z,8.75
2022-08-14T10:38:27.839Z,9.85
2022-08-14T10:40:59.403Z,8.07
2022-08-14T10:43:31.762Z,8.68
2022-08-14T10:46:21.852Z,7.20
2022-08-14T10:49:04.402Z,7.28
2022-08-14T10:54:36.299Z,7.70
2022-08-14T11:00:30.036Z,9.18
2022-08-14T11:03:07.958Z,13.38
2022-08-14T11:05:43.649Z,12.73
2022-08-14T11:08:15.545Z,13.10
2022-08-14T11:10:49.180Z,12.43
2022-08-14T11:13:24.014Z,14.40
2022-08-14T11:15:56.010Z,14.70
2022-08-14T11:18:30.542Z,10.40
2022-08-14T11:21:06.824Z,8.57
2022-08-14T11:23:41.057Z,10.52
2022-08-14T11:26:14.152Z,8.52
2022-08-14T11:28:49.983Z,12.52
2022-08-14T11:31:24.173Z,11.85
2022-08-14T11:33:57.584Z,10.98
2022-08-14T11:37:02.467Z,11.75
2022-08-14T11:39:35.030Z,13.45
2022-08-14T11:42:55.491Z,15.32
2022-08-14T11:45:00.048Z,13.38
2022-08-14T11:47:35.427Z,18.48
2022-08-14T11:50:33.794Z,14.00
2022-08-14T11:53:05.875Z,14.10
2022-08-14T11:55:39.359Z,9.18
2022-08-14T11:58:34.798Z,11.38
2022-08-14T12:01:11.346Z,9.98
2022-08-14T12:03:51.493Z,9.05
2022-08-14T12:06:29.290Z,13.10
2022-08-14T12:09:13.918Z,13.18
2022-08-14T12:11:47.763Z,11.73
2022-08-14T12:14:29.855Z,12.43
2022-08-14T12:17:05.210Z,12.25
2022-08-14T12:19:56.512Z,15.85
2022-08-14T12:22:52.664Z,12.65
2022-08-14T12:25:25.273Z,11.27
2022-08-14T12:27:59.158Z,12.20
2022-08-14T12:30:39.498Z,13.55
2022-08-14T12:33:25.680Z,11.55
2022-08-14T12:35:58.139Z,21.65
2022-08-14T12:38:36.000Z,32.00
2022-08-14T12:41:06.489Z,26.75
2022-08-14T12:43:48.206Z,15.50
2022-08-14T12:46:28.401Z,12.02
2022-08-14T12:48:59.180Z,9.27
2022-08-14T12:51:31.725Z,10.40
2022-08-14T12:54:01.543Z,11.50
2022-08-14T12:56:33.817Z,15.52
2022-08-14T12:59:05.056Z,14.27
2022-08-14T13:01:59.819Z,13.20
2022-08-14T13:04:23.743Z,16.13
2022-08-14T13:06:53.166Z,12.98
2022-08-14T13:09:23.125Z,13.23
2022-08-14T13:11:59.275Z,17.35
2022-08-14T13:14:45.792Z,14.85
2022-08-14T13:17:14.563Z,13.25
2022-08-14T13:19:45.700Z,15.85
2022-08-14T13:22:28.782Z,20.27
2022-08-14T13:25:01.306Z,16.27
2022-08-14T13:27:39.255Z,18.08
2022-08-14T13:30:21.308Z,20.00
2022-08-14T13:32:54.528Z,22.10
2022-08-14T13:35:26.872Z,16.48
2022-08-14T13:37:55.642Z,16.23
2022-08-14T13:40:26.392Z,34.42
2022-08-14T13:42:56.735Z,26.73
2022-08-14T13:45:33.963Z,19.55
2022-08-14T13:48:32.569Z,16.17
2022-08-14T13:51:10.806Z,14.30
2022-08-14T13:54:06.902Z,14.30
2022-08-14T13:56:42.354Z,19.10
2022-08-14T13:59:12.346Z,19.15
2022-08-14T14:01:52.182Z,31.67
2022-08-14T14:04:20.470Z,31.73
2022-08-14T14:06:50.802Z,17.02
2022-08-14T14:09:32.215Z,16.60
2022-08-14T14:12:04.032Z,11.82
2022-08-14T14:14:51.488Z,23.08
2022-08-14T14:17:25.026Z,24.13
2022-08-14T14:19:59.145Z,22.88
2022-08-14T14:22:36.081Z,21.85
2022-08-14T14:25:21.980Z,13.27
2022-08-14T14:27:53.542Z,14.57
2022-08-14T14:30:52.609Z,15.65
2022-08-14T14:33:43.978Z,16.00
2022-08-14T14:36:05.261Z,17.33
2022-08-14T14:38:40.918Z,12.25
2022-08-14T14:41:11.034Z,11.80
2022-08-14T14:43:45.131Z,12.48
2022-08-14T14:46:16.316Z,13.48
2022-08-14T14:48:54.606Z,12.57
2022-08-14T14:51:24.356Z,9.93
2022-08-14T14:53:54.228Z,11.75
2022-08-14T14:56:48.128Z,12.52
2022-08-14T14:59:13.988Z,11.60
2022-08-14T15:01:50.609Z,10.10
2022-08-14T15:04:21.331Z,8.70
2022-08-14T15:06:50.297Z,8.70
2022-08-14T15:09:23.711Z,9.52
2022-08-14T15:11:52.302Z,10.27
2022-08-14T15:14:55.818Z,12.13
2022-08-14T15:17:12.219Z,15.18
2022-08-14T15:19:56.727Z,10.82
2022-08-14T15:22:30.896Z,11.35
2022-08-14T15:25:00.101Z,12.25
2022-08-14T15:27:32.222Z,10.70
2022-08-14T15:30:02.008Z,9.95
2022-08-14T15:32:33.123Z,10.80
2022-08-14T15:35:03.402Z,11.52
2022-08-14T15:37:42.438Z,10.43
2022-08-14T15:40:22.084Z,9.88
2022-08-14T15:42:52.042Z,9.90
2022-08-14T15:45:21.646Z,9.23
2022-08-14T15:47:52.532Z,10.98
2022-08-14T15:50:24.009Z,10.52
2022-08-14T15:52:56.868Z,9.40
2022-08-14T15:55:25.661Z,10.52
2022-08-14T15:58:08.147Z,11.57
2022-08-14T16:01:08.746Z,9.05
2022-08-14T16:03:40.972Z,8.48
2022-08-14T16:06:17.946Z,8.40
2022-08-14T16:08:57.621Z,8.80
2022-08-14T16:11:32.790Z,8.73
2022-08-14T16:14:12.480Z,8.77
2022-08-14T16:40:11.406Z,11.60
2022-08-14T16:43:04.014Z,10.98
2022-08-14T16:45:33.625Z,12.82
2022-08-14T16:48:55.045Z,13.00
2022-08-14T16:51:00.857Z,14.30
2022-08-14T17:00:51.279Z,10.55
2022-08-14T17:09:29.235Z,9.30
2022-08-14T17:12:07.509Z,8.80
2022-08-14T17:15:15.030Z,9.30
2022-08-14T17:17:49.848Z,9.00
2022-08-14T17:20:54.076Z,10.15
2022-08-14T17:23:16.243Z,8.90
2022-08-14T17:25:51.465Z,9.73
2022-08-14T17:28:52.583Z,8.82
2022-08-14T17:31:12.259Z,9.15
2022-08-14T17:33:44.275Z,9.63
2022-08-14T17:36:21.512Z,10.23
2022-08-14T17:39:13.456Z,9.60
2022-08-14T17:42:01.738Z,8.88
2022-08-14T17:44:45.180Z,8.70
2022-08-14T17:47:18.220Z,8.63
2022-08-14T17:49:51.971Z,8.73
2022-08-14T17:52:34.922Z,8.70
2022-08-14T17:55:07.443Z,12.18
2022-08-14T18:02:00.195Z,10.23
2022-08-14T18:04:28.951Z,9.63
2022-08-14T18:07:16.532Z,9.80
2022-08-14T18:09:59.083Z,10.50
2022-08-14T18:12:36.619Z,9.52
2022-08-14T18:15:16.503Z,11.10
2022-08-14T18:17:52.599Z,9.23
2022-08-14T18:21:41.217Z,9.60
2022-08-14T18:23:12.856Z,11.50
2022-08-14T18:25:49.808Z,9.85
2022-08-14T18:28:51.567Z,9.45
2022-08-14T18:31:42.119Z,10.52
2022-08-14T18:34:30.869Z,12.95
2022-08-14T18:37:17.619Z,13.50
2022-08-14T18:40:03.472Z,14.70
2022-08-14T18:42:47.598Z,18.15
2022-08-14T18:45:31.509Z,11.93
2022-08-14T18:48:51.701Z,21.63
2022-08-14T18:51:45.228Z,15.80
2022-08-14T18:54:33.110Z,12.95
2022-08-14T18:57:05.623Z,11.38
2022-08-14T19:00:23.995Z,13.63
2022-08-14T19:03:01.846Z,11.50
2022-08-14T19:06:02.544Z,12.35
2022-08-14T19:08:39.001Z,11.07
2022-08-14T19:11:54.981Z,11.23
2022-08-14T19:14:48.721Z,10.98
2022-08-14T19:17:42.882Z,11.45
2022-08-14T19:20:47.925Z,20.27
2022-08-14T19:23:22.685Z,12.50
2022-08-14T19:26:02.154Z,12.52
2022-08-14T19:28:51.255Z,17.23
2022-08-14T19:31:46.532Z,13.20
2022-08-14T19:34:48.268Z,11.57
2022-08-14T19:37:57.095Z,13.68
2022-08-14T19:40:34.538Z,16.02
2022-08-14T19:43:06.642Z,11.25
2022-08-14T19:45:35.810Z,10.13
2022-08-14T19:48:15.614Z,11.77
2022-08-14T19:50:46.775Z,10.67
2022-08-14T19:53:17.279Z,10.20
2022-08-14T19:56:05.887Z,11.27
2022-08-14T19:58:54.993Z,11.70
2022-08-14T20:01:38.132Z,12.77
2022-08-14T20:04:45.159Z,12.88
2022-08-14T20:07:00.333Z,11.43
2022-08-14T20:11:04.938Z,11.57
2022-08-14T20:12:28.923Z,10.93
2022-08-14T20:15:09.139Z,10.40
2022-08-14T20:17:40.224Z,10.52
2022-08-14T20:20:20.895Z,11.00
2022-08-14T20:23:11.368Z,9.70
2022-08-14T20:25:45.403Z,10.70
2022-08-14T20:28:32.219Z,9.27
2022-08-14T20:31:15.704Z,9.53
2022-08-14T20:34:24.819Z,9.20
2022-08-14T20:37:09.795Z,11.00
2022-08-14T20:39:44.999Z,10.20
2022-08-14T20:42:34.390Z,12.13
2022-08-14T20:45:23.821Z,10.87
2022-08-14T20:54:02.864Z,11.70
2022-08-14T20:56:35.357Z,9.87
2022-08-14T20:59:19.189Z,21.90
2022-08-14T21:01:57.342Z,10.40
2022-08-14T21:04:29.598Z,12.20
2022-08-14T21:10:44.820Z,10.80
2022-08-14T21:16:35.802Z,10.80
2022-08-14T21:34:55.256Z,11.03
2022-08-14T21:37:29.836Z,10.47
2022-08-14T21:40:02.417Z,9.33
2022-08-14T21:42:58.424Z,10.57
2022-08-14T21:45:31.299Z,10.70
2022-08-14T21:48:11.159Z,10.50
2022-08-14T21:51:01.454Z,9.60
2022-08-14T21:53:37.156Z,12.97
2022-08-14T21:56:38.469Z,10.13
2022-08-14T21:59:18.061Z,10.60
2022-08-14T22:02:00.329Z,10.23
2022-08-14T22:04:40.584Z,8.97
2022-08-14T22:07:12.121Z,9.40
2022-08-14T22:09:43.227Z,9.87
2022-08-14T22:12:58.025Z,31.60
2022-08-14T22:15:08.796Z,18.70
2022-08-14T22:17:37.710Z,11.67
2022-08-14T22:20:16.698Z,11.37
2022-08-14T22:22:45.276Z,10.87
2022-08-14T22:25:17.337Z,10.60
2022-08-14T22:27:55.901Z,17.83
2022-08-14T22:30:29.207Z,11.63
2022-08-14T22:33:00.145Z,10.93
2022-08-14T22:35:34.305Z,10.30
2022-08-14T22:38:37.687Z,10.10
2022-08-14T22:41:09.643Z,9.77
2022-08-14T22:43:44.002Z,9.03
2022-08-14T22:46:20.049Z,8.97
2022-08-14T22:48:51.151Z,10.13
2022-08-14T22:51:21.735Z,9.60
2022-08-14T22:53:53.200Z,9.13
2022-08-14T22:56:29.207Z,14.50
2022-08-14T22:59:20.525Z,10.23
2022-08-14T23:02:11.961Z,9.90
2022-08-14T23:04:54.556Z,8.30
2022-08-14T23:07:24.807Z,12.53
2022-08-14T23:09:56.241Z,7.70
2022-08-14T23:12:29.253Z,8.10
2022-08-14T23:14:59.324Z,7.43
2022-08-14T23:17:39.607Z,8.40
2022-08-14T23:20:18.981Z,9.67
2022-08-14T23:22:51.213Z,7.80
2022-08-14T23:25:57.558Z,7.17
2022-08-14T23:28:34.041Z,7.07
2022-08-14T23:31:08.175Z,9.13
2022-08-14T23:33:59.271Z,9.60
2022-08-14T23:36:32.586Z,7.33
2022-08-14T23:39:10.217Z,7.53
2022-08-14T23:41:47.057Z,7.37
2022-08-14T23:44:24.294Z,7.60
2022-08-14T23:47:00.540Z,6.93
2022-08-14T23:49:59.825Z,10.63
2022-08-14T23:53:07.419Z,10.70
2022-08-14T23:55:11.560Z,7.13
2022-08-14T23:57:43.903Z,7.53
